Terminal Aerodrome Forecast
Issued by NWS Louisville, KY

Home | Current Version | Previous Version | Text Only | Print | Product List | Glossary On
Versions: 1 2 3 4 5 6 7 8 9 10 11 12 13 14 15 16 17 18
000
FTUS43 KLMK 312100 AAA
TAFSDF
TAF AMD
KSDF 312141Z 3122/0124 32014G24KT P6SM VCSH BKN035
     FM010000 32018G26KT P6SM VCSH OVC025
      TEMPO 0100/0104 3SM -RASN BR BKN015
     FM011000 33016KT P6SM BKN025
     FM011800 34014G19KT P6SM SCT025 BKN040=

USA.gov is the U.S. government's official web portal to all federal, state and local government web resources and services.